Time;durP1;ratioP1;P1;durP2;ratioP2;P2;SDS_P1;SDS_P2;PMS_P1;PMS_P2;Temp;Humidity;BMP_temperature;BMP_pressure;BME280_temperature;BME280_humidity;BME280_pressure;Samples;Min_cycle;Max_cycle;Signal;HPM_P1;HPM_P2
2021/01/29 00:00:09;;;;;;;57.38;34.20;;;3.50;99.90;;;;;;5081883;28;20382;-74
2021/01/29 00:02:34;;;;;;;63.17;35.33;;;3.30;99.90;;;;;;5080026;28;20444;-74
2021/01/29 00:05:00;;;;;;;424.43;81.47;;;3.40;99.90;;;;;;5084537;28;20438;-74
2021/01/29 00:07:25;;;;;;;415.73;72.20;;;2.40;99.90;;;;;;5079386;28;20422;-74
2021/01/29 00:09:51;;;;;;;308.47;43.17;;;2.50;99.90;;;;;;5084396;28;20888;-73
2021/01/29 00:12:17;;;;;;;417.43;59.13;;;2.80;99.90;;;;;;5078321;28;20442;-73
2021/01/29 00:14:43;;;;;;;247.90;38.88;;;;;;;;;;5084357;28;20375;-72
2021/01/29 00:17:08;;;;;;;206.45;42.35;;;2.20;99.90;;;;;;5084877;28;20390;-73
2021/01/29 00:19:34;;;;;;;72.53;31.00;;;2.70;99.90;;;;;;5079904;28;20374;-74
2021/01/29 00:21:59;;;;;;;70.37;23.83;;;3.20;99.90;;;;;;5082161;28;20365;-74
2021/01/29 00:24:25;;;;;;;60.00;24.57;;;3.40;99.90;;;;;;5081496;28;20398;-73
2021/01/29 00:26:50;;;;;;;70.67;31.57;;;2.70;99.90;;;;;;5079766;28;20460;-74
2021/01/29 00:29:16;;;;;;;102.23;34.77;;;;;;;;;;5081436;28;20874;-74
2021/01/29 00:31:42;;;;;;;67.17;31.97;;;2.90;99.90;;;;;;5081302;28;20787;-74
2021/01/29 00:34:07;;;;;;;36.73;22.03;;;3.40;99.90;;;;;;5081785;28;20373;-72
2021/01/29 00:36:33;;;;;;;68.60;32.63;;;;;;;;;;5078381;28;20850;-74
2021/01/29 00:38:59;;;;;;;55.92;28.63;;;2.70;99.90;;;;;;5075043;28;20461;-73
2021/01/29 00:41:24;;;;;;;43.43;25.60;;;3.40;99.90;;;;;;5078737;28;20479;-73
2021/01/29 00:43:53;;;;;;;54.70;28.43;;;3.30;99.90;;;;;;5084465;28;20477;-73
2021/01/29 00:46:19;;;;;;;39.95;24.48;;;3.30;99.90;;;;;;5078498;28;20403;-73
2021/01/29 00:48:46;;;;;;;63.97;30.97;;;;;;;;;;5075856;28;20376;-75
2021/01/29 00:51:11;;;;;;;27.90;22.45;;;3.20;99.90;;;;;;5069739;28;20400;-74
2021/01/29 00:53:38;;;;;;;62.30;31.30;;;;;;;;;;5069962;28;20758;-73
2021/01/29 00:56:04;;;;;;;25.43;20.33;;;;;;;;;;5070579;28;20372;-73
2021/01/29 00:58:29;;;;;;;253.32;58.72;;;3.10;99.90;;;;;;5073790;28;20378;-72
2021/01/29 01:00:55;;;;;;;148.40;47.73;;;3.20;99.90;;;;;;5073513;28;20399;-72
2021/01/29 01:03:21;;;;;;;99.23;36.30;;;2.80;99.90;;;;;;5073664;28;20516;-73
2021/01/29 01:05:46;;;;;;;153.50;35.73;;;2.30;99.90;;;;;;5073499;28;20415;-72
2021/01/29 01:08:12;;;;;;;84.10;32.85;;;2.40;99.90;;;;;;5073619;28;20391;-72
2021/01/29 01:10:37;;;;;;;264.20;41.88;;;2.50;99.90;;;;;;5073646;28;20372;-73
2021/01/29 01:13:03;;;;;;;34.75;23.15;;;3.10;99.90;;;;;;5073203;28;20434;-74
2021/01/29 01:15:28;;;;;;;28.75;21.75;;;2.80;99.90;;;;;;5073212;28;20390;-73
2021/01/29 01:17:58;;;;;;;77.95;36.28;;;2.60;99.90;;;;;;5073442;28;20411;-73
2021/01/29 01:20:27;;;;;;;70.13;28.80;;;2.70;99.90;;;;;;5073228;28;20778;-73
2021/01/29 01:22:52;;;;;;;42.15;20.50;;;3.30;99.90;;;;;;5073049;28;20409;-73
2021/01/29 01:25:18;;;;;;;29.17;20.85;;;3.10;99.90;;;;;;5073319;28;20394;-73
2021/01/29 01:27:45;;;;;;;21.13;16.57;;;2.60;99.90;;;;;;5072452;28;21469;-72
2021/01/29 01:30:15;;;;;;;23.67;17.73;;;2.80;99.90;;;;;;5073297;28;20468;-74
2021/01/29 01:32:41;;;;;;;57.17;28.42;;;;;;;;;;5085706;28;20458;-72
2021/01/29 01:35:08;;;;;;;25.33;18.85;;;3.00;99.90;;;;;;5093235;28;20445;-72
2021/01/29 01:37:33;;;;;;;25.75;18.58;;;2.80;99.90;;;;;;5093544;28;20704;-74
2021/01/29 01:39:59;;;;;;;20.92;15.18;;;3.20;99.90;;;;;;5093295;28;20389;-73
2021/01/29 01:42:24;;;;;;;71.53;30.08;;;3.30;99.90;;;;;;5092999;28;20383;-72
2021/01/29 01:44:50;;;;;;;149.50;32.38;;;2.70;99.90;;;;;;5093163;28;20382;-74
2021/01/29 01:47:29;;;;;;;23.75;16.48;;;;;;;;;;5093279;28;20382;-73
2021/01/29 01:49:58;;;;;;;15.80;12.95;;;;;;;;;;5093321;28;20482;-73
2021/01/29 01:52:43;;;;;;;28.70;18.70;;;;;;;;;;5092907;28;20805;-73
2021/01/29 01:55:10;;;;;;;28.70;19.48;;;3.00;99.90;;;;;;5091758;28;20433;-73
2021/01/29 01:57:38;;;;;;;21.13;15.57;;;2.50;99.90;;;;;;5093170;28;20734;-73
2021/01/29 02:00:11;;;;;;;16.30;13.45;;;2.90;99.90;;;;;;5092994;28;20427;-73
2021/01/29 02:02:42;;;;;;;16.77;13.50;;;2.70;99.90;;;;;;5092790;28;20901;-73
2021/01/29 02:05:11;;;;;;;10.05;9.05;;;;;;;;;;5092870;28;20796;-73
2021/01/29 02:08:01;;;;;;;11.73;9.98;;;3.30;99.90;;;;;;5092601;28;20779;-73
2021/01/29 02:10:27;;;;;;;12.68;10.65;;;3.30;99.90;;;;;;5092098;28;20412;-73
2021/01/29 02:12:54;;;;;;;9.50;8.50;;;3.40;99.90;;;;;;5091899;28;21039;-73
2021/01/29 02:15:23;;;;;;;12.43;10.90;;;3.50;99.90;;;;;;5092490;28;20386;-73
2021/01/29 02:17:58;;;;;;;18.02;13.50;;;3.40;99.90;;;;;;5092644;28;20484;-73
2021/01/29 02:20:50;;;;;;;15.48;12.10;;;3.40;99.90;;;;;;5092506;28;20382;-74
2021/01/29 02:23:30;;;;;;;19.05;13.82;;;3.50;99.90;;;;;;5068494;28;20444;-74
2021/01/29 02:26:18;;;;;;;14.60;12.23;;;3.30;99.90;;;;;;5072301;28;20440;-74
2021/01/29 02:29:26;;;;;;;34.05;23.65;;;3.10;99.90;;;;;;5072330;28;20394;-74
2021/01/29 02:32:35;;;;;;;33.55;24.00;;;3.00;99.90;;;;;;5078282;28;20765;-74
2021/01/29 02:35:32;;;;;;;35.65;25.33;;;2.70;99.90;;;;;;5092155;28;20898;-74
2021/01/29 02:38:33;;;;;;;40.65;28.98;;;2.80;99.90;;;;;;5092230;28;20452;-74
2021/01/29 02:41:26;;;;;;;420.38;86.20;;;2.80;99.90;;;;;;5091768;28;20364;-74
2021/01/29 02:44:10;;;;;;;33.65;25.75;;;2.60;99.90;;;;;;5091787;28;25129;-73
2021/01/29 02:47:08;;;;;;;36.95;26.27;;;2.40;99.90;;;;;;5092102;28;20409;-73
2021/01/29 02:49:55;;;;;;;21.63;17.88;;;3.10;99.90;;;;;;5091921;28;20381;-73
2021/01/29 02:52:27;;;;;;;19.95;16.10;;;3.20;99.90;;;;;;5091584;28;20450;-74
2021/01/29 02:55:14;;;;;;;12.50;11.30;;;2.90;99.90;;;;;;5091937;28;20480;-72
2021/01/29 02:57:51;;;;;;;19.23;15.98;;;3.50;99.90;;;;;;5091785;28;20439;-74
2021/01/29 03:00:19;;;;;;;65.65;29.73;;;3.50;99.90;;;;;;5091720;28;20461;-73
2021/01/29 03:03:07;;;;;;;23.23;16.10;;;3.40;99.90;;;;;;5091521;28;20885;-74
2021/01/29 03:05:40;;;;;;;19.02;14.65;;;3.50;99.90;;;;;;5084788;28;20463;-73
2021/01/29 03:08:27;;;;;;;20.88;15.63;;;3.30;99.90;;;;;;5091682;28;20397;-74
2021/01/29 03:11:09;;;;;;;15.55;13.30;;;3.30;99.90;;;;;;5091410;28;20434;-73
2021/01/29 03:13:45;;;;;;;16.60;14.00;;;3.50;99.90;;;;;;5091492;28;20478;-73
2021/01/29 03:16:54;;;;;;;11.85;10.68;;;3.40;99.90;;;;;;5091479;28;20458;-73
2021/01/29 03:19:20;;;;;;;30.00;20.10;;;;;;;;;;5090163;28;20443;-72
2021/01/29 03:21:50;;;;;;;23.77;17.95;;;3.50;99.90;;;;;;5091073;28;20748;-72
2021/01/29 03:24:40;;;;;;;22.55;17.67;;;2.90;99.90;;;;;;5078760;28;20428;-74
2021/01/29 03:27:14;;;;;;;21.08;16.58;;;3.30;99.90;;;;;;5059998;28;20906;-75
2021/01/29 03:29:44;;;;;;;15.55;13.50;;;;;;;;;;5070970;28;20959;-75
2021/01/29 03:32:14;;;;;;;16.73;14.27;;;3.50;99.90;;;;;;5079517;28;20589;-75
2021/01/29 03:34:54;;;;;;;22.73;16.87;;;3.40;99.90;;;;;;5091072;28;20585;-75
2021/01/29 03:37:31;;;;;;;25.67;18.98;;;2.80;99.90;;;;;;5091147;28;20395;-74
2021/01/29 03:39:56;;;;;;;40.23;29.63;;;3.40;99.90;;;;;;5091147;28;20592;-75
2021/01/29 03:42:30;;;;;;;38.72;28.75;;;2.90;99.90;;;;;;5090686;28;20465;-75
2021/01/29 03:45:17;;;;;;;35.30;27.67;;;3.10;99.90;;;;;;5090956;28;20384;-75
2021/01/29 03:47:56;;;;;;;29.90;26.00;;;3.40;99.90;;;;;;5091118;28;20757;-75
2021/01/29 03:50:47;;;;;;;31.45;25.75;;;3.10;99.90;;;;;;5090706;28;24961;-76
2021/01/29 03:53:13;;;;;;;28.17;23.55;;;;;;;;;;5090823;28;20437;-75
2021/01/29 03:55:45;;;;;;;51.53;31.93;;;3.60;99.90;;;;;;5090636;28;20875;-74
2021/01/29 03:58:33;;;;;;;60.88;34.17;;;3.60;99.90;;;;;;5090982;28;20401;-73
2021/01/29 04:01:23;;;;;;;56.40;31.27;;;3.30;99.90;;;;;;5090478;28;20418;-73
2021/01/29 04:04:00;;;;;;;27.00;18.52;;;3.10;99.90;;;;;;5090485;28;20408;-73
2021/01/29 04:06:29;;;;;;;44.70;25.58;;;3.40;99.90;;;;;;5090770;28;20421;-73
2021/01/29 04:09:08;;;;;;;70.00;29.80;;;3.40;99.90;;;;;;5090624;28;20377;-73
2021/01/29 04:11:43;;;;;;;25.08;17.95;;;3.70;99.90;;;;;;5090318;28;20946;-74
2021/01/29 04:14:15;;;;;;;28.08;19.35;;;3.10;99.90;;;;;;5090668;28;20454;-73
2021/01/29 04:16:44;;;;;;;32.17;21.33;;;3.30;99.90;;;;;;5090452;28;20497;-74
2021/01/29 04:19:20;;;;;;;24.88;17.90;;;3.90;99.90;;;;;;5090564;28;20381;-73
2021/01/29 04:22:12;;;;;;;41.77;24.20;;;3.70;99.90;;;;;;5090227;28;20442;-74
2021/01/29 04:24:43;;;;;;;39.45;24.27;;;3.60;99.90;;;;;;5074875;28;20400;-74
2021/01/29 04:27:16;;;;;;;35.03;22.52;;;3.80;99.90;;;;;;5070387;28;20879;-73
2021/01/29 04:29:52;;;;;;;39.72;22.63;;;4.10;99.90;;;;;;5070550;28;20469;-74
2021/01/29 04:32:22;;;;;;;43.22;24.88;;;4.30;99.90;;;;;;5084301;28;20914;-73
2021/01/29 04:34:53;;;;;;;48.17;23.40;;;3.90;99.90;;;;;;5094535;28;20403;-74
2021/01/29 04:37:24;;;;;;;76.22;29.77;;;4.00;99.90;;;;;;5094587;28;20431;-74
2021/01/29 04:39:52;;;;;;;66.45;30.65;;;4.10;99.90;;;;;;5094472;28;20365;-73
2021/01/29 04:42:49;;;;;;;500.27;57.83;;;4.10;99.90;;;;;;5094048;28;20761;-73
2021/01/29 04:45:49;;;;;;;111.45;32.53;;;4.10;99.90;;;;;;5094150;28;25120;-74
2021/01/29 04:48:26;;;;;;;53.53;27.33;;;3.90;99.90;;;;;;5086015;28;25146;-73
2021/01/29 04:50:52;;;;;;;48.10;24.77;;;;;;;;;;5093959;28;20384;-73
2021/01/29 04:54:01;;;;;;;83.63;32.50;;;4.10;99.90;;;;;;5094140;28;20398;-73
2021/01/29 04:56:48;;;;;;;290.60;50.53;;;4.20;99.90;;;;;;5051437;28;20392;-73
2021/01/29 04:59:42;;;;;;;90.40;35.45;;;4.70;99.90;;;;;;5091064;28;20464;-72
2021/01/29 05:02:18;;;;;;;50.92;26.73;;;;;;;;;;5093733;28;20413;-73
2021/01/29 05:05:22;;;;;;;91.25;28.50;;;4.80;99.90;;;;;;5092468;28;25175;-73
2021/01/29 05:08:03;;;;;;;62.55;28.02;;;4.50;99.90;;;;;;5093956;28;20789;-74
2021/01/29 05:10:43;;;;;;;66.38;28.70;;;4.80;99.90;;;;;;5093800;28;20406;-73
2021/01/29 05:13:28;;;;;;;122.60;40.88;;;;;;;;;;5093690;28;20433;-73
2021/01/29 05:16:04;;;;;;;719.75;76.90;;;4.30;99.90;;;;;;5093315;28;25115;-74
2021/01/29 05:19:08;;;;;;;221.57;39.17;;;4.30;99.90;;;;;;5093466;28;25106;-74
2021/01/29 05:21:36;;;;;;;303.92;53.97;;;4.60;99.90;;;;;;5093382;28;20406;-73
2021/01/29 05:24:23;;;;;;;234.82;50.08;;;4.20;99.90;;;;;;5082983;28;20391;-74
2021/01/29 05:27:21;;;;;;;82.85;36.13;;;4.20;99.90;;;;;;5073445;28;20396;-73
2021/01/29 05:30:10;;;;;;;86.05;35.97;;;4.60;99.90;;;;;;5073277;28;20504;-74
2021/01/29 05:33:00;;;;;;;86.30;38.20;;;4.70;99.90;;;;;;5081613;28;20470;-73
2021/01/29 05:35:38;;;;;;;79.73;35.87;;;4.90;99.90;;;;;;5072995;28;20460;-73
2021/01/29 05:38:26;;;;;;;69.85;33.45;;;4.90;99.90;;;;;;5093400;28;20484;-73
2021/01/29 05:41:16;;;;;;;82.57;35.92;;;;;;;;;;5092981;28;20399;-74
2021/01/29 05:44:10;;;;;;;78.35;35.47;;;5.30;99.90;;;;;;5092513;28;20382;-73
2021/01/29 05:47:06;;;;;;;100.80;39.80;;;4.90;99.90;;;;;;5093313;28;20370;-72
2021/01/29 05:49:49;;;;;;;78.50;35.35;;;5.10;99.90;;;;;;5093086;28;20944;-73
2021/01/29 05:52:43;;;;;;;107.10;41.15;;;4.90;99.90;;;;;;5092751;28;20402;-73
2021/01/29 05:55:09;;;;;;;87.03;36.63;;;;;;;;;;5093007;28;20786;-72
2021/01/29 05:58:03;;;;;;;73.20;32.90;;;5.00;99.90;;;;;;5092925;28;20533;-74
2021/01/29 06:01:08;;;;;;;90.60;37.38;;;4.60;99.90;;;;;;5092651;28;20401;-74
2021/01/29 06:03:59;;;;;;;80.65;32.95;;;5.40;99.90;;;;;;5092698;28;20374;-74
2021/01/29 06:06:50;;;;;;;86.78;34.83;;;5.00;99.90;;;;;;5092991;28;20443;-73
2021/01/29 06:09:16;;;;;;;81.10;33.42;;;;;;;;;;5092648;28;20859;-72
2021/01/29 06:12:30;;;;;;;72.33;32.63;;;4.10;99.90;;;;;;5092561;28;20417;-72
2021/01/29 06:15:38;;;;;;;68.82;31.00;;;5.70;99.90;;;;;;5082940;28;20390;-74
2021/01/29 06:18:16;;;;;;;77.18;33.97;;;5.60;99.90;;;;;;5056420;28;20397;-73
2021/01/29 06:21:18;;;;;;;79.05;36.60;;;5.00;99.90;;;;;;5092466;28;20431;-73
2021/01/29 06:24:14;;;;;;;61.23;31.93;;;5.20;99.90;;;;;;5095582;28;20392;-73
2021/01/29 06:27:04;;;;;;;59.85;31.20;;;5.60;99.90;;;;;;5083308;28;20445;-71
2021/01/29 06:29:53;;;;;;;58.50;27.80;;;;;;;;;;5082246;28;20913;-72
2021/01/29 06:32:42;;;;;;;52.03;27.63;;;5.50;99.90;;;;;;5083954;28;20404;-73
2021/01/29 06:35:27;;;;;;;55.83;27.63;;;5.20;99.90;;;;;;5092193;28;20380;-73
2021/01/29 06:38:12;;;;;;;31.02;20.38;;;5.70;99.90;;;;;;5092245;28;20381;-73
2021/01/29 06:40:38;;;;;;;39.05;23.42;;;;;;;;;;5092180;28;20458;-73
2021/01/29 06:43:28;;;;;;;37.00;21.98;;;5.70;99.90;;;;;;5092006;28;20404;-73
2021/01/29 06:46:07;;;;;;;42.25;24.38;;;5.80;99.90;;;;;;5092118;28;20438;-73
2021/01/29 06:49:01;;;;;;;31.00;20.02;;;5.20;99.90;;;;;;5092127;28;20374;-73
2021/01/29 06:52:01;;;;;;;44.67;25.60;;;5.50;99.90;;;;;;5091610;28;20404;-73
2021/01/29 06:55:01;;;;;;;47.92;25.63;;;5.80;99.90;;;;;;5083954;28;20388;-72
2021/01/29 06:57:56;;;;;;;39.37;23.23;;;5.70;99.90;;;;;;5071525;28;20441;-73
2021/01/29 07:00:42;;;;;;;41.57;24.37;;;5.60;99.90;;;;;;5071548;28;20873;-74
2021/01/29 07:03:42;;;;;;;33.10;21.75;;;5.30;99.90;;;;;;5071429;28;20403;-72
2021/01/29 07:06:15;;;;;;;43.53;23.95;;;;;;;;;;5071436;28;20386;-73
2021/01/29 07:08:48;;;;;;;37.75;23.75;;;;;;;;;;5071401;28;20526;-73
2021/01/29 07:11:44;;;;;;;32.65;21.77;;;5.70;99.90;;;;;;5071019;28;20750;-73
2021/01/29 07:14:31;;;;;;;29.23;19.38;;;5.80;99.90;;;;;;5071156;28;20912;-73
2021/01/29 07:17:05;;;;;;;28.75;20.05;;;5.60;99.90;;;;;;5071078;28;20789;-73
2021/01/29 07:20:08;;;;;;;29.73;21.02;;;5.90;99.90;;;;;;5071208;28;20383;-73
2021/01/29 07:23:09;;;;;;;37.43;25.40;;;5.70;99.90;;;;;;5071066;28;21020;-73
2021/01/29 07:26:10;;;;;;;35.40;23.02;;;5.80;99.90;;;;;;5060545;28;20459;-73
2021/01/29 07:28:44;;;;;;;37.93;24.57;;;5.50;99.90;;;;;;5070617;28;20390;-73
2021/01/29 07:31:43;;;;;;;50.00;29.98;;;5.60;99.90;;;;;;5070572;28;20390;-73
2021/01/29 07:34:50;;;;;;;51.78;35.25;;;6.20;99.90;;;;;;5084264;28;20868;-73
2021/01/29 07:37:29;;;;;;;42.55;30.70;;;;;;;;;;5071220;28;20393;-72
2021/01/29 07:40:31;;;;;;;48.47;32.27;;;6.30;99.90;;;;;;5090746;28;21199;-73
2021/01/29 07:43:16;;;;;;;33.28;23.38;;;;;;;;;;5090534;28;20418;-73
2021/01/29 07:46:09;;;;;;;36.83;25.60;;;6.00;99.90;;;;;;5090556;28;20916;-73
2021/01/29 07:48:59;;;;;;;35.15;26.02;;;5.50;99.90;;;;;;5090713;28;20390;-73
2021/01/29 07:51:40;;;;;;;37.53;25.70;;;5.80;99.90;;;;;;5090416;28;20406;-73
2021/01/29 07:54:43;;;;;;;29.65;22.17;;;5.60;99.90;;;;;;5086461;28;20917;-73
2021/01/29 07:57:20;;;;;;;27.35;19.55;;;5.70;99.90;;;;;;5070411;28;20380;-73
2021/01/29 08:00:06;;;;;;;19.00;14.90;;;6.40;99.90;;;;;;5070366;28;20380;-73
2021/01/29 08:02:51;;;;;;;18.58;14.95;;;5.70;99.90;;;;;;5070280;28;20475;-74
2021/01/29 08:05:31;;;;;;;16.90;12.80;;;6.40;99.90;;;;;;5069990;28;20872;-73
2021/01/29 08:08:20;;;;;;;16.95;13.00;;;6.30;99.90;;;;;;5070390;28;20383;-74
2021/01/29 08:10:50;;;;;;;18.92;13.52;;;6.50;99.90;;;;;;5070035;28;20867;-72
2021/01/29 08:13:35;;;;;;;16.30;12.23;;;6.00;99.90;;;;;;5070099;28;20407;-73
2021/01/29 08:16:11;;;;;;;15.37;10.63;;;6.00;99.90;;;;;;5069861;28;20423;-73
2021/01/29 08:18:53;;;;;;;17.73;11.75;;;;;;;;;;5088675;28;20413;-71
2021/01/29 08:21:36;;;;;;;13.45;10.13;;;6.60;99.90;;;;;;5089455;28;20462;-73
2021/01/29 08:24:26;;;;;;;14.80;10.38;;;6.60;99.90;;;;;;5080086;28;20715;-73
2021/01/29 08:27:20;;;;;;;12.07;8.90;;;6.00;99.90;;;;;;5070184;28;20877;-72
2021/01/29 08:29:46;;;;;;;10.70;8.40;;;;;;;;;;5070005;28;20391;-73
2021/01/29 08:32:24;;;;;;;8.82;7.70;;;;;;;;;;5078252;28;20891;-72
2021/01/29 08:34:49;;;;;;;10.25;7.88;;;;;;;;;;5090057;28;20389;-72
2021/01/29 08:37:38;;;;;;;8.43;6.87;;;6.50;99.90;;;;;;5090280;28;20664;-73
2021/01/29 08:40:43;;;;;;;7.93;6.20;;;6.30;99.90;;;;;;5090108;28;20362;-73
2021/01/29 08:43:37;;;;;;;8.30;6.33;;;6.70;99.90;;;;;;5058196;28;20378;-72
2021/01/29 08:46:10;;;;;;;5.45;4.63;;;6.90;99.90;;;;;;5090063;28;20435;-73
2021/01/29 08:48:59;;;;;;;4.50;3.97;;;6.70;99.90;;;;;;5089937;28;20466;-73
2021/01/29 08:51:43;;;;;;;3.78;3.17;;;6.90;99.90;;;;;;5089730;28;20371;-73
2021/01/29 08:54:23;;;;;;;2.75;2.25;;;7.10;99.90;;;;;;5089970;28;20382;-72
2021/01/29 08:57:04;;;;;;;2.97;1.98;;;7.20;99.90;;;;;;5089725;28;20374;-71
2021/01/29 08:59:34;;;;;;;2.30;1.80;;;7.10;99.90;;;;;;5072427;28;20383;-72
2021/01/29 09:02:18;;;;;;;2.63;1.40;;;7.40;99.90;;;;;;5072756;28;20391;-72
2021/01/29 09:04:43;;;;;;;3.00;1.70;;;;;;;;;;5067504;28;20388;-72
2021/01/29 09:07:24;;;;;;;1.90;1.23;;;7.20;99.90;;;;;;5069545;28;20391;-72
2021/01/29 09:09:50;;;;;;;2.80;1.23;;;;;;;;;;5068775;28;20727;-71
2021/01/29 09:12:25;;;;;;;1.10;1.00;;;7.80;99.90;;;;;;5067539;28;20410;-72
2021/01/29 09:15:01;;;;;;;1.50;1.10;;;7.30;99.90;;;;;;5068999;28;20417;-71
2021/01/29 09:17:35;;;;;;;2.97;1.08;;;;;;;;;;5070801;28;20376;-72
2021/01/29 09:20:07;;;;;;;2.10;1.00;;;7.20;99.90;;;;;;5073341;28;20407;-72
2021/01/29 09:22:41;;;;;;;1.15;0.90;;;7.60;99.90;;;;;;5073170;28;20780;-72
2021/01/29 09:25:09;;;;;;;1.00;0.80;;;;;;;;;;5073055;28;20421;-71
2021/01/29 09:27:56;;;;;;;1.33;0.70;;;7.60;99.90;;;;;;5073223;28;20375;-72
2021/01/29 09:30:32;;;;;;;1.67;0.68;;;7.60;99.90;;;;;;5073236;28;20395;-72
2021/01/29 09:33:13;;;;;;;1.00;0.70;;;7.40;99.90;;;;;;5088059;28;20740;-73
2021/01/29 09:35:59;;;;;;;1.58;0.88;;;7.40;99.90;;;;;;5093220;28;20381;-73
2021/01/29 09:38:33;;;;;;;1.13;0.80;;;7.30;99.90;;;;;;5084580;28;20974;-73
2021/01/29 09:41:20;;;;;;;1.45;0.80;;;7.20;99.90;;;;;;5072650;28;20459;-72
2021/01/29 09:44:00;;;;;;;1.70;0.90;;;7.20;99.90;;;;;;5072849;28;20383;-72
2021/01/29 09:46:40;;;;;;;1.48;1.15;;;7.10;99.90;;;;;;5060430;28;20379;-72
2021/01/29 09:49:10;;;;;;;1.90;0.80;;;7.10;99.90;;;;;;5073085;28;20594;-72
2021/01/29 09:51:52;;;;;;;1.60;0.80;;;7.10;99.90;;;;;;5072518;28;20407;-72
2021/01/29 09:54:27;;;;;;;1.50;0.55;;;7.10;99.90;;;;;;5072682;28;20851;-71
2021/01/29 09:56:57;;;;;;;0.65;0.60;;;;;;;;;;5072741;28;20384;-73
2021/01/29 09:59:30;;;;;;;0.90;0.52;;;;;;;;;;5072422;28;20742;-73
2021/01/29 10:02:04;;;;;;;2.45;1.08;;;7.30;99.90;;;;;;5072282;28;21023;-73
2021/01/29 10:04:53;;;;;;;1.33;0.95;;;7.20;99.90;;;;;;5072469;28;20380;-71
2021/01/29 10:07:23;;;;;;;1.27;0.73;;;7.20;99.90;;;;;;5075938;28;20390;-72
2021/01/29 10:10:20;;;;;;;1.40;1.05;;;7.10;99.90;;;;;;5072074;28;20387;-72
2021/01/29 10:13:25;;;;;;;0.93;0.55;;;7.10;99.90;;;;;;5072071;28;21041;-71
2021/01/29 10:16:08;;;;;;;2.20;1.00;;;7.00;99.90;;;;;;5072044;28;20387;-71
2021/01/29 10:18:36;;;;;;;3.95;2.20;;;6.90;99.90;;;;;;5072130;28;20742;-72
2021/01/29 10:21:06;;;;;;;4.35;2.45;;;;;;;;;;5071960;28;20392;-72
2021/01/29 10:23:45;;;;;;;5.65;2.95;;;6.80;99.90;;;;;;5071984;28;20384;-72
2021/01/29 10:26:17;;;;;;;5.00;2.33;;;;;;;;;;5072033;28;20375;-73
2021/01/29 10:29:04;;;;;;;3.03;1.80;;;7.10;99.90;;;;;;5071929;28;20429;-71
2021/01/29 10:31:57;;;;;;;1.33;0.95;;;6.80;99.90;;;;;;5074834;28;20400;-75
2021/01/29 10:34:37;;;;;;;1.63;0.80;;;;;;;;;;5080843;28;20502;-72
2021/01/29 10:37:09;;;;;;;2.72;0.90;;;6.80;99.90;;;;;;5092260;28;20431;-72
2021/01/29 10:39:54;;;;;;;1.30;0.90;;;7.00;99.90;;;;;;5092037;28;20378;-72
2021/01/29 10:42:32;;;;;;;1.45;0.90;;;6.90;99.90;;;;;;5091763;28;20740;-73
2021/01/29 10:44:58;;;;;;;0.93;0.70;;;7.00;99.90;;;;;;5091801;28;20378;-72
2021/01/29 10:47:43;;;;;;;2.05;0.75;;;7.10;99.90;;;;;;5091815;28;20378;-71
2021/01/29 10:50:33;;;;;;;1.40;0.70;;;7.00;99.90;;;;;;5091911;28;20867;-71
2021/01/29 10:53:20;;;;;;;2.05;1.00;;;7.10;99.90;;;;;;5091586;28;20861;-72
2021/01/29 10:56:08;;;;;;;4.47;1.15;;;7.10;99.90;;;;;;5091620;28;20378;-72
2021/01/29 10:58:56;;;;;;;3.22;1.10;;;6.60;99.90;;;;;;5081942;28;20422;-71
2021/01/29 11:01:30;;;;;;;3.80;1.15;;;;;;;;;;5091747;28;20720;-72
2021/01/29 11:04:04;;;;;;;4.40;1.17;;;7.20;99.90;;;;;;5091306;28;20398;-72
2021/01/29 11:06:44;;;;;;;3.00;1.10;;;7.20;99.90;;;;;;5091557;28;20431;-73
2021/01/29 11:09:41;;;;;;;5.82;1.52;;;7.40;99.90;;;;;;5091481;28;20374;-72
2021/01/29 11:12:51;;;;;;;4.10;1.55;;;7.30;99.90;;;;;;5090317;28;20413;-72
2021/01/29 11:15:35;;;;;;;7.10;1.40;;;7.40;99.90;;;;;;5028447;28;20899;-72
2021/01/29 11:18:19;;;;;;;4.38;1.40;;;7.40;99.90;;;;;;5028981;28;20434;-72
2021/01/29 11:20:47;;;;;;;6.10;1.60;;;7.30;99.90;;;;;;5073137;28;20844;-72
2021/01/29 11:23:24;;;;;;;5.28;1.50;;;;;;;;;;5087643;28;20387;-72
2021/01/29 11:25:58;;;;;;;6.72;1.65;;;7.50;99.90;;;;;;5070876;28;20746;-71
2021/01/29 11:28:51;;;;;;;6.83;1.90;;;7.60;99.90;;;;;;5070892;28;20387;-72
2021/01/29 11:31:20;;;;;;;6.75;1.55;;;7.50;99.90;;;;;;5070992;28;20386;-72
2021/01/29 11:33:49;;;;;;;6.32;1.67;;;7.50;99.90;;;;;;5079633;28;20414;-71
2021/01/29 11:36:20;;;;;;;5.75;1.75;;;7.70;99.90;;;;;;5081570;28;20376;-72
2021/01/29 11:38:49;;;;;;;6.93;1.90;;;7.30;99.90;;;;;;5064461;28;20385;-72
2021/01/29 11:41:30;;;;;;;7.13;2.73;;;8.00;99.90;;;;;;5077737;28;20386;-72
2021/01/29 11:44:13;;;;;;;9.85;4.40;;;7.90;99.90;;;;;;5084674;28;20475;-72
2021/01/29 11:47:06;;;;;;;8.63;2.85;;;8.00;99.90;;;;;;5081085;28;20400;-73
2021/01/29 11:49:53;;;;;;;6.68;1.83;;;;;;;;;;5080114;28;20372;-72
2021/01/29 11:52:34;;;;;;;5.83;1.63;;;8.30;99.90;;;;;;5078638;28;20469;-72
2021/01/29 11:55:20;;;;;;;8.52;2.13;;;8.20;99.90;;;;;;5071759;28;20387;-72
2021/01/29 11:58:09;;;;;;;7.50;1.95;;;;;;;;;;5070351;28;20378;-73
2021/01/29 12:00:52;;;;;;;7.97;2.10;;;;;;;;;;5080022;28;20372;-71
2021/01/29 12:03:17;;;;;;;8.85;2.05;;;8.30;99.90;;;;;;5081569;28;20426;-72
2021/01/29 12:05:50;;;;;;;8.23;2.30;;;7.60;99.90;;;;;;5078960;28;20386;-71
2021/01/29 12:08:25;;;;;;;9.32;2.50;;;8.10;99.90;;;;;;5081339;28;20854;-72
2021/01/29 12:10:53;;;;;;;9.18;2.40;;;7.70;99.90;;;;;;5070809;28;20393;-73
2021/01/29 12:13:19;;;;;;;9.77;2.17;;;;;;;;;;5079915;28;20402;-72
2021/01/29 12:15:58;;;;;;;8.07;1.83;;;8.60;99.90;;;;;;5081724;28;20392;-73
2021/01/29 12:18:26;;;;;;;7.53;2.63;;;8.60;99.90;;;;;;5081528;28;20387;-73
2021/01/29 12:21:15;;;;;;;9.73;2.17;;;8.60;99.90;;;;;;5081864;28;20933;-71
2021/01/29 12:23:48;;;;;;;9.05;2.45;;;8.40;99.90;;;;;;5080508;28;20886;-72
2021/01/29 12:26:34;;;;;;;8.13;1.90;;;8.30;99.90;;;;;;5080212;28;20747;-71
2021/01/29 12:29:37;;;;;;;9.02;2.72;;;8.30;99.90;;;;;;5071764;28;20811;-73
2021/01/29 12:32:20;;;;;;;8.07;2.60;;;7.80;99.90;;;;;;5071969;28;20426;-72
2021/01/29 12:34:51;;;;;;;10.65;2.50;;;8.10;99.90;;;;;;5078666;28;20378;-72
2021/01/29 12:37:40;;;;;;;8.07;2.50;;;8.50;99.90;;;;;;5081696;28;20417;-72
2021/01/29 12:40:06;;;;;;;6.97;2.35;;;7.90;99.90;;;;;;5076217;28;20370;-72
2021/01/29 12:42:54;;;;;;;9.57;2.53;;;8.40;99.90;;;;;;5080389;28;20382;-72
2021/01/29 12:45:32;;;;;;;8.25;2.33;;;;;;;;;;5081632;28;20417;-72
2021/01/29 12:48:18;;;;;;;8.40;2.38;;;7.80;99.90;;;;;;5075045;28;20893;-73
2021/01/29 12:51:07;;;;;;;12.27;2.40;;;7.90;99.90;;;;;;5077992;28;20479;-74
2021/01/29 12:53:55;;;;;;;6.55;2.10;;;7.80;99.90;;;;;;5084655;28;20404;-73
2021/01/29 12:56:36;;;;;;;7.70;1.90;;;8.40;99.90;;;;;;5085998;28;20374;-71
2021/01/29 12:59:02;;;;;;;9.05;2.00;;;8.30;99.90;;;;;;5081845;28;20738;-73
2021/01/29 13:01:34;;;;;;;11.43;2.23;;;;;;;;;;5088214;28;20549;-73
2021/01/29 13:04:12;;;;;;;7.40;2.03;;;8.00;99.90;;;;;;5081337;28;20437;-73
2021/01/29 13:06:55;;;;;;;9.68;2.30;;;8.10;99.90;;;;;;5086982;28;20366;-73
2021/01/29 13:09:43;;;;;;;8.97;2.40;;;8.20;99.90;;;;;;5089093;28;20378;-71
2021/01/29 13:12:43;;;;;;;7.22;2.17;;;8.80;99.90;;;;;;5081373;28;20403;-73
2021/01/29 13:15:40;;;;;;;7.83;2.03;;;8.40;99.90;;;;;;5078362;28;20380;-72
2021/01/29 13:18:15;;;;;;;8.70;2.10;;;8.60;99.90;;;;;;5076102;28;20463;-71
2021/01/29 13:20:47;;;;;;;9.38;2.28;;;8.50;99.90;;;;;;5084103;28;20378;-72
2021/01/29 13:23:30;;;;;;;9.77;1.83;;;9.10;99.90;;;;;;5083916;28;20931;-73
2021/01/29 13:25:58;;;;;;;6.70;1.98;;;;;;;;;;5070973;28;20377;-73
2021/01/29 13:28:24;;;;;;;7.18;1.83;;;9.10;99.90;;;;;;5082057;28;20378;-70
2021/01/29 13:30:50;;;;;;;8.00;2.00;;;9.10;99.90;;;;;;5087770;28;20792;-73
2021/01/29 13:33:34;;;;;;;7.65;1.80;;;;;;;;;;5081224;28;20407;-71
2021/01/29 13:36:22;;;;;;;8.13;1.85;;;8.70;99.90;;;;;;5076659;28;20391;-73
2021/01/29 13:38:47;;;;;;;8.82;2.08;;;9.10;99.90;;;;;;5073473;28;20896;-72
2021/01/29 13:41:21;;;;;;;6.27;1.83;;;9.10;99.90;;;;;;5080874;28;20466;-72
2021/01/29 13:43:47;;;;;;;7.25;1.75;;;9.00;99.90;;;;;;5074371;28;20392;-73
2021/01/29 13:46:25;;;;;;;6.90;1.67;;;9.00;99.90;;;;;;5076544;28;20459;-73
2021/01/29 13:49:30;;;;;;;6.28;1.63;;;9.00;99.90;;;;;;5075654;28;20380;-72
2021/01/29 13:51:56;;;;;;;6.22;1.58;;;;;;;;;;5069441;28;20753;-72
2021/01/29 13:54:33;;;;;;;5.43;1.63;;;9.00;99.90;;;;;;5078026;28;20463;-72
2021/01/29 13:57:33;;;;;;;5.75;1.40;;;8.30;99.90;;;;;;5086167;28;20388;-72
2021/01/29 14:00:17;;;;;;;6.28;1.63;;;8.60;99.90;;;;;;5072180;28;20852;-72
2021/01/29 14:02:51;;;;;;;5.50;1.90;;;;;;;;;;5083018;28;20435;-73